createdAt,value
2023-03-29T14:01:07.475Z,960.8831
2023-03-29T14:02:08.663Z,960.9131
2023-03-29T14:03:09.833Z,960.9354
2023-03-29T14:04:11.093Z,960.9539
2023-03-29T14:05:12.318Z,960.9285
2023-03-29T14:06:13.546Z,960.9123
2023-03-29T14:07:14.812Z,960.9177
2023-03-29T14:08:19.401Z,960.8746
2023-03-29T14:09:20.931Z,960.8839
2023-03-29T14:10:22.423Z,960.8700
2023-03-29T14:11:24.481Z,960.8900
2023-03-29T14:12:25.653Z,960.8616
2023-03-29T14:13:27.036Z,960.8623
2023-03-29T14:14:28.553Z,960.8815
2023-03-29T14:15:30.049Z,960.8723
2023-03-29T14:16:31.815Z,960.8516
2023-03-29T14:17:33.133Z,960.8377
2023-03-29T14:18:34.802Z,960.8461
2023-03-29T14:19:36.128Z,960.8215
2023-03-29T14:21:58.808Z,960.8162
2023-03-29T14:23:00.047Z,960.8423
2023-03-29T14:24:01.282Z,960.8369
2023-03-29T14:25:02.477Z,960.8200
2023-03-29T14:26:03.972Z,960.7900
2023-03-29T14:27:04.989Z,960.7492
2023-03-29T14:28:06.234Z,960.8015
2023-03-29T14:29:07.445Z,960.7892
2023-03-29T14:30:07.600Z,960.7633
2023-03-29T14:32:04.573Z,960.7969
2023-03-29T14:33:05.787Z,960.7500
2023-03-29T14:34:06.958Z,960.7508
2023-03-29T14:35:10.401Z,960.7431
2023-03-29T14:36:12.064Z,960.7292
2023-03-29T14:37:13.475Z,960.7047
2023-03-29T14:38:14.927Z,960.7023
2023-03-29T14:39:17.847Z,960.7023
2023-03-29T14:40:19.120Z,960.7054
2023-03-29T14:41:21.998Z,960.6946
2023-03-29T14:42:21.575Z,960.7400
2023-03-29T14:43:22.746Z,960.7238
2023-03-29T14:44:24.076Z,960.7639
2023-03-29T14:45:25.566Z,960.7515
2023-03-29T14:46:27.197Z,960.7346
2023-03-29T14:47:28.650Z,960.6985
2023-03-29T14:48:30.137Z,960.6962
2023-03-29T14:49:31.702Z,960.7600
2023-03-29T14:50:33.196Z,960.7515
2023-03-29T14:51:34.694Z,960.7084
2023-03-29T14:52:36.239Z,960.7292
2023-03-29T14:53:37.762Z,960.7700
2023-03-29T14:54:39.242Z,960.7431
2023-03-29T14:55:40.799Z,960.7569
2023-03-29T14:56:42.308Z,960.7408
2023-03-29T14:57:43.852Z,960.6746
2023-03-29T14:58:45.316Z,960.6177
2023-03-29T14:59:46.854Z,960.5777
2023-03-29T15:00:48.399Z,960.5831
2023-03-29T15:01:50.010Z,960.5731
2023-03-29T15:02:51.536Z,960.5777
2023-03-29T15:03:54.712Z,960.5777
2023-03-29T15:04:54.461Z,960.5208
2023-03-29T15:05:56.003Z,960.5631
2023-03-29T15:06:57.510Z,960.5646
2023-03-29T15:07:59.025Z,960.5954
2023-03-29T15:09:06.161Z,960.5916
2023-03-29T15:10:04.418Z,960.6000
2023-03-29T15:11:05.694Z,960.5662
2023-03-29T15:12:06.925Z,960.5946
2023-03-29T15:13:08.181Z,960.5746
2023-03-29T15:14:09.433Z,960.5739
2023-03-29T15:15:10.629Z,960.5854
2023-03-29T15:16:12.075Z,960.5807
2023-03-29T15:17:13.122Z,960.5762
2023-03-29T15:18:14.441Z,960.6200
2023-03-29T15:19:15.725Z,960.5892
2023-03-29T15:20:17.260Z,960.5770
2023-03-29T15:21:18.794Z,960.5646
2023-03-29T15:22:20.275Z,960.5685
2023-03-29T15:23:21.854Z,960.5815
2023-03-29T15:24:23.368Z,960.5515
2023-03-29T15:25:24.877Z,960.5115
2023-03-29T15:26:26.394Z,960.5077
2023-03-29T15:27:27.928Z,960.4962
2023-03-29T15:28:29.487Z,960.4792
2023-03-29T15:29:30.936Z,960.4769
2023-03-29T15:30:33.982Z,960.4846
2023-03-29T15:31:35.245Z,960.4431
2023-03-29T15:32:36.465Z,960.4300
2023-03-29T15:33:37.922Z,960.4531
2023-03-29T15:34:38.930Z,960.4138
2023-03-29T15:35:40.160Z,960.3900
2023-03-29T15:36:41.703Z,960.3946
2023-03-29T15:37:43.136Z,960.3746
2023-03-29T15:38:45.508Z,960.3754
2023-03-29T15:39:46.180Z,960.3715
2023-03-29T15:40:47.763Z,960.3669
2023-03-29T15:41:49.287Z,960.3800
2023-03-29T15:42:50.760Z,960.3577
2023-03-29T15:43:52.268Z,960.3454
2023-03-29T15:44:53.809Z,960.3808
2023-03-29T15:45:55.330Z,960.3869
2023-03-29T15:46:56.875Z,960.3908
2023-03-29T15:47:59.735Z,960.3646
2023-03-29T15:49:01.015Z,960.3500
2023-03-29T15:50:02.198Z,960.3561
2023-03-29T15:51:06.534Z,960.3431
2023-03-29T15:52:04.677Z,960.3362
2023-03-29T15:53:15.149Z,960.3439
2023-03-29T15:54:07.584Z,960.3638
2023-03-29T15:55:08.998Z,960.3931
2023-03-29T15:56:10.562Z,960.4039
2023-03-29T15:57:12.482Z,960.4146
2023-03-29T15:58:13.665Z,960.4338
2023-03-29T15:59:18.129Z,960.4215
2023-03-29T16:00:19.350Z,960.4200
2023-03-29T16:01:20.574Z,960.4054
2023-03-29T16:02:21.854Z,960.4023
2023-03-29T16:03:23.089Z,960.4169
2023-03-29T16:04:24.291Z,960.4354
2023-03-29T16:05:25.546Z,960.4193
2023-03-29T16:06:26.786Z,960.4215
2023-03-29T16:07:27.980Z,960.4154
2023-03-29T16:08:29.232Z,960.3870
2023-03-29T16:09:30.554Z,960.3992
2023-03-29T16:10:31.798Z,960.3931
2023-03-29T16:11:33.332Z,960.3600
2023-03-29T16:12:34.830Z,960.3392
2023-03-29T16:13:36.509Z,960.3608
2023-03-29T16:14:37.928Z,960.3477
2023-03-29T16:15:39.421Z,960.3400
2023-03-29T16:16:40.969Z,960.3700
2023-03-29T16:17:42.511Z,960.3738
2023-03-29T16:18:43.943Z,960.3477
2023-03-29T16:19:45.542Z,960.3738
2023-03-29T16:20:46.991Z,960.4077
2023-03-29T16:21:48.558Z,960.4562
2023-03-29T16:22:50.031Z,960.4562
2023-03-29T16:23:51.580Z,960.4731
2023-03-29T16:24:53.141Z,960.4415
2023-03-29T16:25:54.633Z,960.4392
2023-03-29T16:26:56.486Z,960.4177
2023-03-29T16:27:57.671Z,960.3931
2023-03-29T16:28:59.165Z,960.3577
2023-03-29T16:30:00.736Z,960.3630
2023-03-29T16:31:02.212Z,960.3469
2023-03-29T16:32:06.265Z,960.3285
2023-03-29T17:45:53.497Z,968.3947
2023-03-29T17:46:54.801Z,968.3870
2023-03-29T17:47:56.045Z,968.3962
2023-03-29T17:48:57.204Z,968.3915
2023-03-29T17:52:32.756Z,968.3439
2023-03-29T17:53:34.018Z,968.3292
2023-03-29T17:54:35.231Z,968.3015
2023-03-29T17:55:36.481Z,968.2708
2023-03-29T17:56:37.710Z,968.2000
2023-03-29T17:57:39.424Z,968.1331
2023-03-29T17:58:40.168Z,968.0369
2023-03-29T17:59:41.473Z,967.9654
2023-03-29T18:00:46.195Z,967.9138
2023-03-29T18:01:48.646Z,967.9346
2023-03-29T18:02:44.656Z,967.9350
2023-03-29T18:03:46.132Z,967.9346
2023-03-29T18:04:47.612Z,967.9308
2023-03-29T18:05:49.126Z,967.9362
2023-03-29T18:06:50.654Z,967.9185
2023-03-29T18:07:52.199Z,967.9277
2023-03-29T18:08:53.714Z,967.9346
2023-03-29T18:09:55.236Z,967.9230
2023-03-29T18:10:56.752Z,967.9054
2023-03-29T18:11:58.283Z,967.8777
2023-03-29T18:12:59.953Z,967.8685
2023-03-29T18:14:01.327Z,967.8808
2023-03-29T18:15:02.858Z,967.9092
2023-03-29T18:16:04.560Z,967.9369
2023-03-29T18:17:05.900Z,967.9592
2023-03-29T18:18:08.740Z,968.0139
2023-03-29T18:19:08.917Z,968.1354
2023-03-29T18:20:10.453Z,968.0385
2023-03-29T18:21:11.948Z,968.0046
2023-03-29T18:22:13.463Z,968.0208
2023-03-29T18:23:14.998Z,968.0415
2023-03-29T18:24:16.518Z,968.0715
2023-03-29T18:25:18.033Z,968.1169
2023-03-29T18:26:19.562Z,968.1631
2023-03-29T18:27:21.115Z,968.2238
2023-03-29T18:28:22.653Z,968.2831
2023-03-29T18:29:24.142Z,968.3446
2023-03-29T18:30:25.647Z,968.4084
2023-03-29T18:31:27.278Z,968.4985
2023-03-29T18:32:28.716Z,968.5984
2023-03-29T18:33:30.234Z,968.6830
2023-03-29T18:34:31.733Z,968.7300
2023-03-29T18:35:33.325Z,968.8130
2023-03-29T18:36:34.780Z,968.9000
2023-03-29T18:37:36.328Z,968.9153
2023-03-29T18:38:41.443Z,968.9754
2023-03-29T18:39:48.951Z,969.0177
2023-03-29T18:40:44.203Z,969.0659
2023-03-29T18:43:17.959Z,969.0400
2023-03-29T18:44:18.607Z,969.0277
2023-03-29T18:45:20.171Z,969.0408
2023-03-29T18:46:22.603Z,969.0323
2023-03-29T18:47:23.407Z,969.0369
2023-03-29T18:48:24.686Z,969.0262
2023-03-29T18:49:26.202Z,968.9738
2023-03-29T18:50:29.449Z,968.9746
2023-03-29T18:51:29.222Z,968.9900
2023-03-29T18:52:32.364Z,969.0346
2023-03-29T18:53:37.034Z,969.0822
2023-03-29T18:54:38.549Z,969.1270
2023-03-29T18:55:40.126Z,969.1631
2023-03-29T18:56:42.028Z,969.1692
2023-03-29T18:57:43.099Z,969.1862
2023-03-29T18:58:44.628Z,969.2454
2023-03-29T18:59:46.134Z,969.2839
2023-03-29T19:00:47.632Z,969.3462
2023-03-29T19:01:53.266Z,969.3885
2023-03-29T19:02:53.867Z,969.4138
2023-03-29T19:03:55.774Z,969.4177
2023-03-29T19:04:56.281Z,969.4046
2023-03-29T19:05:57.503Z,969.4385
2023-03-29T19:06:58.741Z,969.4761
2023-03-29T19:07:59.988Z,969.5453
2023-03-29T19:09:01.242Z,969.5523
2023-03-29T19:10:02.486Z,969.5569
2023-03-29T19:11:03.756Z,969.5446
2023-03-29T19:12:04.969Z,969.5331
2023-03-29T19:13:06.241Z,969.5423
2023-03-29T19:14:07.515Z,969.5623
2023-03-29T19:15:08.940Z,969.5385
2023-03-29T19:16:10.536Z,969.5423
2023-03-29T19:17:11.984Z,969.5316
2023-03-29T19:18:13.630Z,969.4639
2023-03-29T19:19:14.999Z,969.3900
2023-03-29T19:20:16.555Z,969.3408
2023-03-29T19:21:18.045Z,969.2508
2023-03-29T19:22:19.590Z,969.2000
2023-03-29T19:23:21.092Z,969.1523
2023-03-29T19:24:22.642Z,969.0885
2023-03-29T19:25:24.130Z,969.0339
2023-03-29T19:26:25.653Z,968.9669
2023-03-29T19:27:27.196Z,968.8931
2023-03-29T19:28:28.716Z,968.8369
2023-03-29T19:29:30.271Z,968.8030
2023-03-29T19:30:31.735Z,968.8023
2023-03-29T19:31:33.324Z,968.8285
2023-03-29T19:32:34.803Z,968.8347
2023-03-29T19:33:36.318Z,968.8277
2023-03-29T19:34:37.828Z,968.8484
2023-03-29T19:35:39.349Z,968.8369
2023-03-29T19:36:40.858Z,968.8277
2023-03-29T19:37:42.376Z,968.8054
2023-03-29T19:38:44.010Z,968.8038
2023-03-29T19:39:45.448Z,968.7861
2023-03-29T19:40:46.958Z,968.7577
2023-03-29T19:41:48.454Z,968.7400
2023-03-29T19:42:50.036Z,968.6923
2023-03-29T19:43:51.563Z,968.6415
2023-03-29T19:44:53.062Z,968.5931
2023-03-29T19:45:54.748Z,968.5400
2023-03-29T19:46:56.150Z,968.4962
2023-03-29T19:47:57.648Z,968.4569
2023-03-29T19:48:59.127Z,968.4408
2023-03-29T19:50:00.664Z,968.4507
2023-03-29T19:51:02.177Z,968.5038
2023-03-29T19:52:03.729Z,968.5500
2023-03-29T19:53:05.218Z,968.5670
2023-03-29T19:54:06.795Z,968.5908
2023-03-29T19:55:08.318Z,968.6215
2023-03-29T19:56:09.809Z,968.6377
2023-03-29T19:57:11.326Z,968.6292
2023-03-29T19:58:12.906Z,968.5823
2023-03-29T19:59:14.360Z,968.5377
2023-03-29T20:00:15.907Z,968.5438
2023-03-29T20:01:17.406Z,968.5615
2023-03-29T20:02:18.937Z,968.5446
2023-03-29T20:03:20.471Z,968.5316
2023-03-29T20:04:22.033Z,968.5247
2023-03-29T20:05:23.509Z,968.5262
2023-03-29T20:06:25.039Z,968.5577
2023-03-29T20:07:26.545Z,968.5954
2023-03-29T20:08:28.075Z,968.6208
2023-03-29T20:09:29.632Z,968.6069
2023-03-29T20:10:31.136Z,968.5823
2023-03-29T20:11:32.637Z,968.5592
2023-03-29T20:12:34.191Z,968.5162
2023-03-29T20:13:38.718Z,968.5015
2023-03-29T20:14:37.217Z,968.5339
2023-03-29T20:15:38.736Z,968.5569
2023-03-29T20:16:40.316Z,968.5723
2023-03-29T20:17:41.801Z,968.5385
2023-03-29T20:18:43.303Z,968.5038
2023-03-29T20:19:44.860Z,968.4915
2023-03-29T20:20:46.362Z,968.4892
2023-03-29T20:21:47.970Z,968.5284
2023-03-29T20:22:53.696Z,968.5254
2023-03-29T20:23:51.104Z,968.5170
2023-03-29T20:24:52.456Z,968.5215
2023-03-29T20:25:54.012Z,968.5308
2023-03-29T20:26:55.495Z,968.5146
2023-03-29T20:27:57.007Z,968.4846
2023-03-29T20:28:58.529Z,968.4631
2023-03-29T20:30:00.061Z,968.4507
2023-03-29T20:31:01.936Z,968.4554
2023-03-29T20:32:03.151Z,968.4385
2023-03-29T20:33:04.712Z,968.4031
2023-03-29T20:34:06.154Z,968.3862
2023-03-29T20:35:07.691Z,968.4069
2023-03-29T20:36:09.349Z,968.3854
2023-03-29T20:37:10.898Z,968.4108
2023-03-29T20:38:12.269Z,968.4200
2023-03-29T20:39:13.908Z,968.4192
2023-03-29T20:40:15.304Z,968.4092
2023-03-29T20:41:16.822Z,968.3892
2023-03-29T20:42:18.804Z,968.3254
2023-03-29T20:43:19.905Z,968.3092
2023-03-29T20:44:21.859Z,968.3123
2023-03-29T20:45:22.917Z,968.3000
2023-03-29T20:46:24.552Z,968.3285
2023-03-29T20:47:25.973Z,968.3292
2023-03-29T20:48:27.491Z,968.3215
2023-03-29T20:49:29.164Z,968.2977
2023-03-29T20:50:30.588Z,968.2223
2023-03-29T20:51:32.185Z,968.1277
2023-03-29T20:52:33.597Z,968.0554
2023-03-29T20:53:35.121Z,968.0146
2023-03-29T20:54:36.715Z,967.9992
2023-03-29T20:55:38.171Z,967.9738
2023-03-29T20:56:40.715Z,967.9808
2023-03-29T20:57:41.203Z,967.9938
2023-03-29T20:58:42.694Z,967.9930
2023-03-29T20:59:44.253Z,968.0100
2023-03-29T21:00:45.761Z,968.0200
2023-03-29T21:01:47.306Z,968.0354
2023-03-29T21:02:48.867Z,968.0269
2023-03-29T21:03:50.387Z,968.0062
2023-03-29T21:04:51.963Z,967.9830
2023-03-29T21:05:53.449Z,967.9861
2023-03-29T21:06:54.914Z,967.9785
2023-03-29T21:07:56.425Z,967.9677
2023-03-29T21:08:57.942Z,967.9731
2023-03-29T21:09:59.465Z,967.9661
2023-03-29T21:11:01.140Z,967.9700
2023-03-29T21:12:02.599Z,967.9723
2023-03-29T21:13:04.041Z,967.9669
2023-03-29T21:14:05.576Z,967.9492
2023-03-29T21:15:07.084Z,967.9569
2023-03-29T21:16:08.662Z,967.9753
2023-03-29T21:17:10.186Z,967.9608
2023-03-29T21:18:11.726Z,967.9446
2023-03-29T21:19:13.169Z,967.9231
2023-03-29T21:20:14.721Z,967.9039
2023-03-29T21:21:16.252Z,967.8947
2023-03-29T21:22:22.608Z,967.8984
2023-03-29T21:23:26.055Z,967.9362
2023-03-29T21:24:29.520Z,967.9061
2023-03-29T21:25:29.615Z,967.8669
2023-03-29T21:26:30.525Z,967.8085
2023-03-29T21:27:31.555Z,967.7670
2023-03-29T21:28:33.153Z,967.6977
2023-03-29T21:29:35.434Z,967.6777
2023-03-29T21:30:36.752Z,967.6769
2023-03-29T21:31:37.276Z,967.6854
2023-03-29T21:32:37.783Z,967.6923
2023-03-29T21:33:40.801Z,967.6808
2023-03-29T21:34:41.452Z,967.6500
2023-03-29T21:35:42.447Z,967.6308
2023-03-29T21:36:43.835Z,967.6454
2023-03-29T21:37:45.334Z,967.6346
2023-03-29T21:38:46.943Z,967.6423
2023-03-29T21:39:49.518Z,967.6339
2023-03-29T21:40:50.022Z,967.6531
2023-03-29T21:41:51.422Z,967.6885
2023-03-29T21:42:52.945Z,967.7131
2023-03-29T21:43:54.475Z,967.7300
2023-03-29T21:44:56.012Z,967.6892
2023-03-29T21:45:57.613Z,967.6323
2023-03-29T21:46:59.133Z,967.5846
2023-03-29T21:48:00.647Z,967.5630
2023-03-29T21:49:02.162Z,967.5438
2023-03-29T21:50:03.652Z,967.5254
2023-03-29T21:51:05.446Z,967.5085
2023-03-29T21:52:06.683Z,967.5031
2023-03-29T21:53:08.693Z,967.5038
2023-03-29T21:54:10.267Z,967.4730
2023-03-29T22:06:32.735Z,967.4309
2023-03-29T22:06:32.735Z,967.3775
2023-03-29T22:07:24.827Z,967.3250
2023-03-29T22:08:26.439Z,967.3339
2023-03-29T22:09:27.887Z,967.3323
2023-03-29T22:10:29.432Z,967.3285
2023-03-29T22:11:31.866Z,967.3108
2023-03-29T22:12:32.473Z,967.2839
2023-03-29T22:13:33.981Z,967.2831
2023-03-29T22:14:36.243Z,967.2823
2023-03-29T22:15:37.009Z,967.2708
2023-03-29T22:16:40.956Z,967.2492
2023-03-29T22:17:41.513Z,967.2277
2023-03-29T22:18:42.765Z,967.2131
2023-03-29T22:19:43.946Z,967.2177
2023-03-29T22:20:45.197Z,967.2085
2023-03-29T22:21:46.423Z,967.2069
2023-03-29T22:22:47.808Z,967.1792
2023-03-29T22:23:49.187Z,967.1577
2023-03-29T22:24:51.888Z,967.1561
2023-03-29T22:25:52.237Z,967.1508
2023-03-29T22:26:53.742Z,967.1431
2023-03-29T22:27:55.312Z,967.1339
2023-03-29T22:28:57.378Z,967.1354
2023-03-29T22:29:58.348Z,967.1277
2023-03-29T22:31:00.288Z,967.1277
2023-03-29T22:32:01.474Z,967.1285
2023-03-29T22:33:02.984Z,967.1292
2023-03-29T22:34:04.503Z,967.1085
2023-03-29T22:35:05.942Z,967.0939
2023-03-29T22:36:07.457Z,967.0954
2023-03-29T22:37:08.978Z,967.0739
2023-03-29T22:38:10.503Z,967.0469
2023-03-29T22:39:12.038Z,967.0277
2023-03-29T22:40:13.558Z,967.0146
2023-03-29T22:41:15.071Z,967.0085
2023-03-29T22:42:16.609Z,966.9838
2023-03-29T22:43:18.140Z,966.9615
2023-03-29T22:44:19.640Z,966.9261
2023-03-29T22:45:21.206Z,966.9077
2023-03-29T22:46:22.777Z,966.9315
2023-03-29T22:47:24.240Z,966.9846
2023-03-29T22:48:25.709Z,966.9962
2023-03-29T22:49:27.257Z,966.9785
2023-03-29T22:50:28.769Z,966.9915
2023-03-29T22:51:30.301Z,967.0054
2023-03-29T22:52:31.852Z,966.9569
2023-03-29T22:53:33.376Z,966.9061
2023-03-29T22:54:34.864Z,966.9054
2023-03-29T22:55:36.375Z,966.8808
2023-03-29T22:56:37.997Z,966.8508
2023-03-29T22:57:39.472Z,966.8692
2023-03-29T22:58:40.988Z,966.8708
2023-03-29T22:59:42.493Z,966.8885
2023-03-29T23:00:44.019Z,966.8984
2023-03-29T23:01:45.514Z,966.8615
2023-03-29T23:02:47.031Z,966.8553
2023-03-29T23:03:48.595Z,966.8839
2023-03-29T23:04:50.222Z,966.8754
2023-03-29T23:05:51.587Z,966.8592
2023-03-29T23:06:53.193Z,966.8808
2023-03-29T23:07:54.624Z,966.9084
2023-03-29T23:08:56.170Z,966.9046
2023-03-29T23:09:57.723Z,966.8885
2023-03-29T23:10:59.188Z,966.8592
2023-03-29T23:12:00.854Z,966.8746
2023-03-29T23:13:02.224Z,966.9115
2023-03-29T23:14:03.744Z,966.9254
2023-03-29T23:15:05.304Z,966.9362
2023-03-29T23:16:06.889Z,966.9692
2023-03-29T23:17:08.307Z,966.9885
2023-03-29T23:18:09.852Z,967.0015
2023-03-29T23:19:11.347Z,967.0277
2023-03-29T23:20:12.938Z,967.0277
2023-03-29T23:21:14.397Z,967.0316
2023-03-29T23:22:15.951Z,967.0461
2023-03-29T23:23:17.438Z,967.0400
2023-03-29T23:24:19.323Z,967.0192
2023-03-29T23:25:20.490Z,967.0023
2023-03-29T23:26:22.003Z,966.9915
2023-03-29T23:27:23.576Z,966.9930
2023-03-29T23:28:25.069Z,966.9962
2023-03-29T23:29:26.567Z,967.0169
2023-03-29T23:30:28.108Z,967.0377
2023-03-29T23:31:29.657Z,967.0185
2023-03-29T23:32:31.165Z,966.9938
2023-03-29T23:33:32.689Z,966.9946
2023-03-29T23:34:34.185Z,966.9800
2023-03-29T23:35:35.773Z,966.9731
2023-03-29T23:36:37.233Z,966.9546
2023-03-29T23:37:38.799Z,966.9200
2023-03-29T23:38:40.262Z,966.8992
2023-03-29T23:39:41.826Z,966.8661
2023-03-29T23:40:43.316Z,966.8630
2023-03-29T23:41:44.915Z,966.8792
2023-03-29T23:42:46.384Z,966.8923
2023-03-29T23:43:47.913Z,966.8777
2023-03-29T23:44:49.402Z,966.8615
2023-03-29T23:45:51.083Z,966.8262
2023-03-29T23:46:52.541Z,966.8162
2023-03-29T23:47:54.025Z,966.8062
2023-03-29T23:48:55.554Z,966.7953
2023-03-29T23:49:57.016Z,966.7831
2023-03-29T23:50:59.616Z,966.7792
2023-03-29T23:52:00.077Z,966.7692
2023-03-29T23:53:01.560Z,966.7346
2023-03-29T23:54:03.120Z,966.7092
2023-03-29T23:55:04.595Z,966.6931
2023-03-29T23:56:06.139Z,966.6885
2023-03-29T23:57:07.757Z,966.7008
2023-03-29T23:58:09.156Z,966.6900
2023-03-29T23:59:10.741Z,966.6669
